Time;durP1;ratioP1;P1;durP2;ratioP2;P2;SDS_P1;SDS_P2;PMS_P1;PMS_P2;Temp;Humidity;BMP_temperature;BMP_pressure;BME280_temperature;BME280_humidity;BME280_pressure;Samples;Min_cycle;Max_cycle;Signal;HPM_P1;HPM_P2
2024/01/05 00:00:23;;;;;;;6.93;3.20;;;;;;;2.72;96.47;100459.91;7385039;19;19919;-69
2024/01/05 00:02:54;;;;;;;5.53;3.15;;;;;;;2.69;96.39;100450.38;7395777;19;19914;-70
2024/01/05 00:05:22;;;;;;;6.25;3.30;;;;;;;2.64;96.24;100449.94;7389159;19;20469;-70
2024/01/05 00:07:51;;;;;;;10.13;4.35;;;;;;;2.63;96.42;100450.91;7394913;19;19927;-67
2024/01/05 00:10:19;;;;;;;7.57;3.35;;;;;;;2.65;96.53;100454.28;7391375;19;19930;-68
2024/01/05 00:12:48;;;;;;;6.80;3.50;;;;;;;2.65;96.63;100454.28;7397625;19;19947;-68
2024/01/05 00:15:18;;;;;;;7.63;4.07;;;;;;;2.66;96.76;100445.34;7389607;19;19922;-68
2024/01/05 00:17:49;;;;;;;6.95;3.10;;;;;;;2.69;96.64;100445.06;7393501;19;19926;-69
2024/01/05 00:20:18;;;;;;;6.63;3.65;;;;;;;2.71;96.39;100435.16;7396467;19;19919;-69
2024/01/05 00:22:46;;;;;;;6.55;3.10;;;;;;;2.71;96.34;100427.16;7386817;19;19926;-68
2024/01/05 00:25:16;;;;;;;6.68;3.47;;;;;;;2.69;95.78;100422.94;7383384;19;20488;-68
2024/01/05 00:27:45;;;;;;;5.32;3.08;;;;;;;2.71;96.16;100426.31;7391887;19;20815;-69
2024/01/05 00:30:14;;;;;;;6.13;3.78;;;;;;;2.72;96.07;100427.97;7396345;19;20332;-69
2024/01/05 00:32:42;;;;;;;5.47;3.15;;;;;;;2.73;95.85;100424.34;7396748;19;19923;-69
2024/01/05 00:35:14;;;;;;;5.82;3.25;;;;;;;2.72;95.51;100418.19;7397906;19;20558;-69
2024/01/05 00:37:42;;;;;;;6.07;3.20;;;;;;;2.76;95.99;100412.63;7398315;19;19951;-69
2024/01/05 00:40:12;;;;;;;7.97;3.40;;;;;;;2.73;95.95;100408.41;7395213;19;20284;-69
2024/01/05 00:42:41;;;;;;;7.05;2.80;;;;;;;2.72;96.22;100402.22;7397270;19;19930;-69
2024/01/05 00:45:10;;;;;;;6.25;3.20;;;;;;;2.73;96.46;100400.41;7392352;19;19918;-69
2024/01/05 00:47:39;;;;;;;5.32;3.15;;;;;;;2.73;96.47;100390.63;7392601;19;19918;-68
2024/01/05 00:50:09;;;;;;;5.70;3.33;;;;;;;2.75;96.28;100390.50;7393905;19;19926;-69
2024/01/05 00:52:40;;;;;;;7.65;3.70;;;;;;;2.73;96.20;100387.13;7397170;19;19933;-68
2024/01/05 00:55:13;;;;;;;8.90;3.42;;;;;;;2.72;96.04;100388.94;7397547;19;20277;-69
2024/01/05 00:58:01;;;;;;;7.93;3.03;;;;;;;2.67;96.52;100375.25;7392640;19;19923;-69
2024/01/05 01:00:30;;;;;;;6.22;3.60;;;;;;;2.68;96.46;100384.88;7396468;19;19922;-69
2024/01/05 01:02:58;;;;;;;6.30;3.08;;;;;;;2.69;97.04;100375.91;7396883;19;19922;-68
2024/01/05 01:05:30;;;;;;;6.63;3.03;;;;;;;2.68;97.20;100378.72;7394486;19;19926;-69
2024/01/05 01:08:01;;;;;;;9.80;3.90;;;;;;;2.69;96.90;100375.06;7395333;19;19926;-69
2024/01/05 01:10:30;;;;;;;6.57;3.22;;;;;;;2.69;97.13;100375.91;7396486;19;19950;-69
2024/01/05 01:12:58;;;;;;;7.95;4.10;;;;;;;2.67;97.34;100377.91;7395308;19;20475;-68
2024/01/05 01:15:28;;;;;;;6.25;3.22;;;;;;;2.69;97.70;100375.91;7395270;19;19922;-69
2024/01/05 01:17:56;;;;;;;8.98;3.28;;;;;;;2.70;97.66;100359.00;7395641;19;19985;-68
2024/01/05 01:20:25;;;;;;;8.02;3.65;;;;;;;2.71;97.47;100358.03;7395071;19;19929;-69
2024/01/05 01:22:53;;;;;;;5.05;2.90;;;;;;;2.74;97.83;100352.41;7395099;19;19929;-69
2024/01/05 01:25:25;;;;;;;7.38;3.00;;;;;;;2.78;97.95;100360.94;7396353;19;20295;-69
2024/01/05 01:27:53;;;;;;;10.85;3.58;;;;;;;2.76;97.31;100356.75;7396404;19;19926;-69
2024/01/05 01:30:22;;;;;;;6.32;2.75;;;;;;;2.73;97.61;100352.53;7395277;19;20289;-69
2024/01/05 01:32:50;;;;;;;9.88;2.90;;;;;;;2.71;97.36;100350.03;7395649;19;19926;-68
2024/01/05 01:35:19;;;;;;;6.05;3.00;;;;;;;2.68;97.40;100352.13;7394878;19;19922;-69
2024/01/05 01:37:48;;;;;;;5.82;3.35;;;;;;;2.68;97.98;100344.97;7395827;19;19934;-68
2024/01/05 01:40:39;;;;;;;6.68;3.33;;;;;;;2.66;98.49;100338.97;7389034;19;19919;-69
2024/01/05 01:43:07;;;;;;;6.57;2.80;;;;;;;2.66;98.19;100338.13;7398084;19;19947;-69
2024/01/05 01:45:36;;;;;;;6.30;2.78;;;;;;;2.67;98.25;100331.84;7394796;19;19977;-69
2024/01/05 01:48:05;;;;;;;6.80;3.53;;;;;;;2.65;98.21;100324.00;7395173;19;19925;-69
2024/01/05 01:50:34;;;;;;;6.88;2.90;;;;;;;2.65;97.84;100325.81;7392759;19;19929;-68
2024/01/05 01:53:03;;;;;;;7.40;3.28;;;;;;;2.64;97.68;100326.78;7395341;19;20459;-69
2024/01/05 01:55:31;;;;;;;7.63;3.25;;;;;;;2.66;98.16;100322.19;7396675;19;19943;-69
2024/01/05 01:58:03;;;;;;;6.70;2.92;;;;;;;2.63;97.66;100317.97;7392618;19;19923;-68
2024/01/05 02:00:33;;;;;;;6.30;3.15;;;;;;;2.60;97.87;100312.94;7393500;19;19925;-69
2024/01/05 02:03:22;;;;;;;5.60;3.13;;;;;;;2.58;97.94;100304.28;7393711;19;20457;-69
2024/01/05 02:05:50;;;;;;;5.72;3.33;;;;;;;2.59;98.00;100300.63;7394822;19;19922;-69
2024/01/05 02:08:19;;;;;;;7.10;3.05;;;;;;;2.58;98.22;100288.31;7392062;19;19926;-69
2024/01/05 02:10:47;;;;;;;7.53;3.45;;;;;;;2.58;97.78;100290.97;7393889;19;19923;-69
2024/01/05 02:13:19;;;;;;;7.43;2.85;;;;;;;2.60;98.10;100281.03;7394837;19;19926;-69
2024/01/05 02:15:48;;;;;;;5.57;2.90;;;;;;;2.60;97.79;100280.19;7392209;19;20273;-68
2024/01/05 02:18:17;;;;;;;8.07;3.67;;;;;;;2.58;97.69;100280.34;7393899;19;20344;-69
2024/01/05 02:20:47;;;;;;;8.30;3.08;;;;;;;2.55;97.91;100266.47;7392323;19;19938;-69
2024/01/05 02:23:24;;;;;;;5.35;2.80;;;;;;;2.57;98.30;100269.84;7394700;19;19922;-68
2024/01/05 02:25:53;;;;;;;6.93;3.35;;;;;;;2.57;98.32;100262.72;7391465;19;19918;-69
2024/01/05 02:28:22;;;;;;;7.25;3.15;;;;;;;2.55;98.00;100255.84;7393492;19;20539;-69
2024/01/05 02:30:50;;;;;;;8.68;3.72;;;;;;;2.54;98.29;100244.38;7393241;19;19989;-69
2024/01/05 02:33:19;;;;;;;8.45;3.40;;;;;;;2.55;98.58;100246.03;7393300;19;19922;-69
2024/01/05 02:35:48;;;;;;;9.27;3.28;;;;;;;2.54;98.49;100236.41;7393642;19;19929;-68
2024/01/05 02:38:16;;;;;;;7.85;3.15;;;;;;;2.52;99.40;100241.00;7394686;19;19918;-69
2024/01/05 02:40:48;;;;;;;8.55;3.83;;;;;;;2.53;99.58;100233.88;7393893;19;20460;-69
2024/01/05 02:43:16;;;;;;;9.80;3.83;;;;;;;2.49;100.00;100225.34;7390363;19;19926;-69
2024/01/05 02:45:45;;;;;;;9.38;4.07;;;;;;;2.49;100.00;100221.84;7392408;19;20010;-69
2024/01/05 02:48:14;;;;;;;9.07;3.60;;;;;;;2.47;100.00;100210.50;7391789;19;19926;-69
2024/01/05 02:50:42;;;;;;;7.57;3.67;;;;;;;2.43;100.00;100217.94;7389580;19;19923;-69
2024/01/05 02:53:11;;;;;;;7.80;3.60;;;;;;;2.41;100.00;100222.56;7392497;19;19927;-69
2024/01/05 02:55:39;;;;;;;8.20;4.22;;;;;;;2.41;100.00;100211.09;7393023;19;19939;-69
2024/01/05 02:58:11;;;;;;;7.22;3.55;;;;;;;2.38;100.00;100219.31;7389318;19;20332;-69
2024/01/05 03:00:39;;;;;;;7.70;3.58;;;;;;;2.35;100.00;100207.16;7392403;19;19915;-68
2024/01/05 03:03:08;;;;;;;10.60;4.20;;;;;;;2.33;100.00;100210.97;7389424;19;19933;-69
2024/01/05 03:05:36;;;;;;;8.77;4.07;;;;;;;2.31;100.00;100210.25;7392660;19;19940;-70
2024/01/05 03:08:06;;;;;;;8.95;4.18;;;;;;;2.31;100.00;100204.94;7392848;19;19926;-69
2024/01/05 03:10:54;;;;;;;9.88;4.18;;;;;;;2.29;100.00;100187.31;7392141;19;19952;-69
2024/01/05 03:13:25;;;;;;;8.30;3.78;;;;;;;2.34;100.00;100180.72;7392220;19;19922;-69
2024/01/05 03:16:15;;;;;;;8.55;3.95;;;;;;;2.35;100.00;100177.94;7392382;19;20332;-68
2024/01/05 03:18:43;;;;;;;9.38;3.38;;;;;;;2.34;100.00;100165.63;7388406;19;20332;-69
2024/01/05 03:21:14;;;;;;;8.13;3.83;;;;;;;2.33;100.00;100171.09;7391690;19;19934;-68
2024/01/05 03:23:42;;;;;;;14.32;4.47;;;;;;;2.29;100.00;100166.03;7389145;19;19918;-68
2024/01/05 03:26:12;;;;;;;9.52;4.00;;;;;;;2.29;100.00;100167.84;7389074;19;19950;-68
2024/01/05 03:29:03;;;;;;;7.78;3.63;;;;;;;2.28;100.00;100152.91;7392866;19;20251;-69
2024/01/05 03:31:32;;;;;;;8.35;4.38;;;;;;;2.24;100.00;100157.66;7398310;19;19926;-68
2024/01/05 03:34:00;;;;;;;10.57;3.92;;;;;;;2.25;100.00;100150.50;7399045;19;20348;-68
2024/01/05 03:36:29;;;;;;;8.90;4.07;;;;;;;2.25;100.00;100155.84;7398468;19;19943;-68
2024/01/05 03:38:58;;;;;;;7.60;3.70;;;;;;;2.25;100.00;100147.84;7395296;19;20301;-68
2024/01/05 03:41:46;;;;;;;7.63;4.18;;;;;;;2.29;100.00;100146.59;7395575;19;20511;-68
2024/01/05 03:44:20;;;;;;;10.40;4.00;;;;;;;2.32;100.00;100140.19;7397749;19;19946;-68
2024/01/05 03:46:49;;;;;;;7.40;3.97;;;;;;;2.35;100.00;100131.91;7398280;19;19922;-69
2024/01/05 03:49:18;;;;;;;8.60;3.47;;;;;;;2.36;100.00;100129.13;7396994;19;19930;-69
2024/01/05 03:52:07;;;;;;;9.50;3.60;;;;;;;2.35;100.00;100122.13;7395311;19;19930;-68
2024/01/05 03:54:35;;;;;;;8.77;3.42;;;;;;;2.34;100.00;100115.13;7396956;19;20482;-69
2024/01/05 03:57:04;;;;;;;7.82;3.25;;;;;;;2.33;100.00;100109.97;7395527;19;19982;-68
2024/01/05 03:59:35;;;;;;;8.13;3.78;;;;;;;2.31;100.00;100109.25;7395943;19;19954;-68
2024/01/05 04:02:04;;;;;;;6.78;3.35;;;;;;;2.31;100.00;100104.78;7398980;19;19953;-68
2024/01/05 04:04:32;;;;;;;7.85;3.92;;;;;;;2.33;100.00;100104.66;7397769;19;19922;-68
2024/01/05 04:07:01;;;;;;;6.43;3.28;;;;;;;2.31;100.00;100101.28;7398016;19;19922;-68
2024/01/05 04:09:30;;;;;;;5.63;3.08;;;;;;;2.31;100.00;100098.63;7391738;19;20332;-68
2024/01/05 04:11:58;;;;;;;8.05;3.15;;;;;;;2.29;100.00;100085.47;7392344;19;19926;-68
2024/01/05 04:14:27;;;;;;;8.07;3.35;;;;;;;2.31;100.00;100083.53;7396210;19;19946;-68
2024/01/05 04:16:59;;;;;;;7.85;3.45;;;;;;;2.32;100.00;100076.41;7397284;19;19915;-69
2024/01/05 04:19:29;;;;;;;7.43;3.35;;;;;;;2.31;100.00;100074.72;7395576;19;19966;-68
2024/01/05 04:21:58;;;;;;;8.25;3.88;;;;;;;2.29;100.00;100070.38;7396159;19;19952;-69
2024/01/05 04:24:26;;;;;;;9.40;4.13;;;;;;;2.28;100.00;100068.72;7398653;19;19927;-69
2024/01/05 04:26:55;;;;;;;7.82;3.45;;;;;;;2.29;100.00;100065.06;7396401;19;19919;-68
2024/01/05 04:29:24;;;;;;;6.63;3.17;;;;;;;2.29;100.00;100067.72;7396696;19;20307;-69
2024/01/05 04:31:52;;;;;;;7.15;3.55;;;;;;;2.31;100.00;100061.44;7395258;19;19926;-68
2024/01/05 04:34:23;;;;;;;6.10;2.70;;;;;;;2.30;100.00;100063.25;7395970;19;19960;-69
2024/01/05 04:36:52;;;;;;;7.47;3.67;;;;;;;2.28;100.00;100057.25;7394945;19;19922;-69
2024/01/05 04:39:20;;;;;;;6.88;3.42;;;;;;;2.29;100.00;100050.94;7398813;19;19950;-68
2024/01/05 04:41:49;;;;;;;8.20;3.88;;;;;;;2.28;100.00;100054.59;7396910;19;19950;-68
2024/01/05 04:44:19;;;;;;;6.95;3.33;;;;;;;2.29;100.00;100049.13;7399353;19;19955;-69
2024/01/05 04:46:48;;;;;;;7.82;3.20;;;;;;;2.30;100.00;100047.28;7396763;19;20483;-69
2024/01/05 04:49:16;;;;;;;7.93;3.35;;;;;;;2.31;100.00;100042.81;7399834;19;19915;-68
2024/01/05 04:51:47;;;;;;;7.80;3.35;;;;;;;2.30;100.00;100041.97;7396918;19;19922;-68
2024/01/05 04:54:16;;;;;;;7.78;3.28;;;;;;;2.30;100.00;100039.31;7397126;19;19918;-68
2024/01/05 04:56:45;;;;;;;8.05;4.20;;;;;;;2.30;100.00;100036.66;7394632;19;19923;-69
2024/01/05 04:59:13;;;;;;;5.95;3.30;;;;;;;2.30;100.00;100036.66;7394381;19;19943;-68
2024/01/05 05:01:42;;;;;;;7.80;3.67;;;;;;;2.32;100.00;100031.22;7395574;19;19919;-68
2024/01/05 05:04:13;;;;;;;8.20;3.70;;;;;;;2.32;100.00;100034.72;7393651;19;19946;-69
2024/01/05 05:06:41;;;;;;;6.28;2.70;;;;;;;2.33;100.00;100025.75;7397069;19;19926;-69
2024/01/05 05:09:13;;;;;;;8.10;3.03;;;;;;;2.34;100.00;100022.09;7395508;19;20327;-68
2024/01/05 05:11:42;;;;;;;8.05;3.90;;;;;;;2.37;100.00;100007.72;7398457;19;19930;-68
2024/01/05 05:14:10;;;;;;;10.77;3.75;;;;;;;2.38;100.00;100020.00;7396472;19;19935;-69
2024/01/05 05:16:39;;;;;;;5.82;2.92;;;;;;;2.38;100.00;100014.66;7396909;19;20902;-68
2024/01/05 05:19:09;;;;;;;6.63;2.95;;;;;;;2.35;100.00;100007.84;7397351;19;19929;-68
2024/01/05 05:21:37;;;;;;;6.47;3.10;;;;;;;2.37;100.00;100013.88;7397912;19;19918;-68
2024/01/05 05:24:06;;;;;;;7.85;3.50;;;;;;;2.38;100.00;100006.69;7398102;19;19939;-68
2024/01/05 05:26:37;;;;;;;5.75;3.70;;;;;;;2.41;100.00;100007.28;7397203;19;19918;-68
2024/01/05 05:29:06;;;;;;;5.55;3.10;;;;;;;2.43;100.00;100004.44;7397844;19;20285;-68
2024/01/05 05:31:34;;;;;;;7.72;3.58;;;;;;;2.44;100.00;100001.66;7396607;19;19937;-69
2024/01/05 05:34:03;;;;;;;7.82;2.72;;;;;;;2.42;100.00;100000.09;7397423;19;19953;-68
2024/01/05 05:36:31;;;;;;;9.25;3.45;;;;;;;2.45;100.00;100002.50;7395989;19;20344;-68
2024/01/05 05:39:20;;;;;;;10.13;3.80;;;;;;;2.44;100.00;100011.44;7395465;19;19925;-68
2024/01/05 05:41:51;;;;;;;8.57;3.55;;;;;;;2.45;100.00;100007.81;7397101;19;19943;-68
2024/01/05 05:44:20;;;;;;;6.57;3.38;;;;;;;2.48;100.00;100003.03;7398169;19;19942;-68
2024/01/05 05:46:48;;;;;;;7.57;3.33;;;;;;;2.49;100.00;100004.72;7395089;19;19918;-68
2024/01/05 05:49:17;;;;;;;7.30;3.50;;;;;;;2.49;100.00;99996.75;7395505;19;19926;-68
2024/01/05 05:51:45;;;;;;;7.80;3.25;;;;;;;2.50;100.00;99997.59;7393855;19;19919;-68
2024/01/05 05:54:14;;;;;;;6.95;3.35;;;;;;;2.47;100.00;99989.88;7397886;19;19922;-68
2024/01/05 05:56:46;;;;;;;8.90;3.42;;;;;;;2.47;100.00;99993.38;7394113;19;19926;-68
2024/01/05 05:59:17;;;;;;;8.38;4.10;;;;;;;2.48;100.00;99983.59;7395515;19;19942;-68
2024/01/05 06:02:05;;;;;;;6.30;3.42;;;;;;;2.45;100.00;99990.03;7395385;19;19922;-68
2024/01/05 06:04:34;;;;;;;9.52;3.75;;;;;;;2.48;100.00;99987.09;7393945;19;20051;-68
2024/01/05 06:07:03;;;;;;;8.55;3.20;;;;;;;2.52;100.00;99993.78;7397201;19;19918;-68
2024/01/05 06:09:32;;;;;;;7.32;3.40;;;;;;;2.48;100.00;99986.25;7396435;19;19918;-68
2024/01/05 06:12:00;;;;;;;6.95;2.88;;;;;;;2.47;100.00;99990.72;7396183;19;19942;-68
2024/01/05 06:14:33;;;;;;;6.57;2.78;;;;;;;2.48;100.00;99989.75;7396850;19;19925;-69
2024/01/05 06:17:02;;;;;;;6.07;2.83;;;;;;;2.48;100.00;99973.78;7393712;19;20576;-68
2024/01/05 06:19:31;;;;;;;7.72;3.00;;;;;;;2.51;100.00;99985.94;7395342;19;19943;-67
2024/01/05 06:22:00;;;;;;;6.10;3.25;;;;;;;2.52;100.00;99985.81;7395168;19;19929;-67
2024/01/05 06:24:28;;;;;;;6.13;2.78;;;;;;;2.53;100.00;99987.47;7396152;19;19918;-68
2024/01/05 06:26:57;;;;;;;6.28;2.92;;;;;;;2.50;100.00;99985.09;7393932;19;19923;-68
2024/01/05 06:29:25;;;;;;;3.47;2.03;;;;;;;2.50;100.00;99986.94;7395413;19;19939;-69
2024/01/05 06:31:57;;;;;;;6.15;2.35;;;;;;;2.50;100.00;99986.94;7395886;19;19958;-68
2024/01/05 06:34:25;;;;;;;5.40;3.05;;;;;;;2.49;100.00;99987.94;7393728;19;19926;-68
2024/01/05 06:36:54;;;;;;;5.65;3.28;;;;;;;2.49;100.00;99991.41;7395794;19;19915;-67
2024/01/05 06:39:23;;;;;;;7.38;3.03;;;;;;;2.50;100.00;99987.75;7395371;19;20277;-68
2024/01/05 06:41:52;;;;;;;5.80;2.72;;;;;;;2.54;100.00;99990.97;7396131;19;20487;-68
2024/01/05 06:44:20;;;;;;;5.25;2.78;;;;;;;2.55;100.00;99990.81;7394229;19;20372;-68
2024/01/05 06:46:50;;;;;;;6.25;2.85;;;;;;;2.52;100.00;99972.50;7395656;19;19927;-68
2024/01/05 06:49:21;;;;;;;5.03;2.63;;;;;;;2.52;100.00;99980.50;7396147;19;19942;-68
2024/01/05 06:51:50;;;;;;;6.47;2.92;;;;;;;2.52;100.00;99969.84;7393731;19;19920;-68
2024/01/05 06:54:19;;;;;;;5.95;2.90;;;;;;;2.52;100.00;99975.16;7392455;19;19923;-68
2024/01/05 06:56:52;;;;;;;7.00;3.83;;;;;;;2.53;100.00;99971.53;7395061;19;20281;-68
2024/01/05 06:59:24;;;;;;;6.00;2.67;;;;;;;2.53;100.00;99968.88;7393806;19;19923;-68
2024/01/05 07:01:53;;;;;;;6.13;3.55;;;;;;;2.56;100.00;99973.88;7394802;19;19954;-68
2024/01/05 07:04:24;;;;;;;5.72;2.97;;;;;;;2.58;100.00;99963.13;7395442;19;20320;-68
2024/01/05 07:07:13;;;;;;;6.88;2.67;;;;;;;2.59;100.00;99962.13;7399290;19;19932;-68
2024/01/05 07:09:43;;;;;;;7.68;3.10;;;;;;;2.59;100.00;99959.47;7400218;19;20388;-68
2024/01/05 07:12:11;;;;;;;6.90;3.67;;;;;;;2.58;100.00;99955.97;7398331;19;19925;-68
2024/01/05 07:14:40;;;;;;;8.25;3.60;;;;;;;2.59;100.00;99960.28;7398911;19;19951;-68
2024/01/05 07:17:28;;;;;;;5.85;3.20;;;;;;;2.59;100.00;99964.78;7396179;19;19994;-68
2024/01/05 07:20:00;;;;;;;6.78;3.40;;;;;;;2.57;100.00;99956.97;7396008;19;19922;-67
2024/01/05 07:22:29;;;;;;;7.15;3.75;;;;;;;2.58;100.00;99955.97;7397798;19;19931;-69
2024/01/05 07:24:58;;;;;;;5.65;3.30;;;;;;;2.57;100.00;99959.63;7397831;19;20356;-68
2024/01/05 07:27:27;;;;;;;6.60;3.72;;;;;;;2.59;100.00;99957.63;7398670;19;19950;-68
2024/01/05 07:29:58;;;;;;;8.43;3.75;;;;;;;2.60;100.00;99959.31;7397758;19;20285;-68
2024/01/05 07:32:26;;;;;;;6.85;3.47;;;;;;;2.61;100.00;99955.66;7398161;19;19931;-67
2024/01/05 07:34:55;;;;;;;8.43;3.45;;;;;;;2.65;100.00;99957.03;7396615;19;20376;-67
2024/01/05 07:37:26;;;;;;;7.38;3.50;;;;;;;2.67;100.00;99955.09;7399389;19;19958;-68
2024/01/05 07:39:54;;;;;;;7.75;4.13;;;;;;;2.69;100.00;99955.75;7397939;19;20334;-68
2024/01/05 07:42:23;;;;;;;6.78;3.92;;;;;;;2.70;100.00;99952.13;7397367;19;19950;-67
2024/01/05 07:44:51;;;;;;;8.43;4.15;;;;;;;2.71;100.00;99948.50;7397014;19;19958;-68
2024/01/05 07:47:23;;;;;;;6.47;3.78;;;;;;;2.71;100.00;99942.31;7398036;19;19943;-68
2024/01/05 07:49:53;;;;;;;7.28;4.55;;;;;;;2.72;100.00;99936.84;7399233;19;19914;-68
2024/01/05 07:52:21;;;;;;;10.15;4.38;;;;;;;2.72;100.00;99942.16;7398668;19;19929;-68
2024/01/05 07:54:52;;;;;;;7.55;4.63;;;;;;;2.72;100.00;99939.50;7395014;19;19929;-70
2024/01/05 07:57:21;;;;;;;9.23;4.47;;;;;;;2.72;100.00;99939.50;7398140;19;19951;-68
2024/01/05 07:59:49;;;;;;;9.18;4.63;;;;;;;2.75;100.00;99941.03;7397475;19;19929;-68
2024/01/05 08:02:18;;;;;;;8.57;4.10;;;;;;;2.76;100.00;99947.19;7396985;19;19915;-68
2024/01/05 08:04:47;;;;;;;8.55;4.15;;;;;;;2.78;100.00;99935.41;7396827;19;20261;-67
2024/01/05 08:07:15;;;;;;;11.63;4.45;;;;;;;2.80;100.00;99944.09;7397287;19;19926;-68
2024/01/05 08:09:44;;;;;;;9.85;4.28;;;;;;;2.81;100.00;99940.44;7399454;19;20285;-68
2024/01/05 08:12:16;;;;;;;10.57;4.95;;;;;;;2.83;100.00;99937.63;7394443;19;19942;-68
2024/01/05 08:14:44;;;;;;;8.50;4.38;;;;;;;2.84;100.00;99936.66;7396308;19;19922;-67
2024/01/05 08:17:13;;;;;;;8.32;4.53;;;;;;;2.85;100.00;99936.47;7397745;19;19923;-68
2024/01/05 08:20:02;;;;;;;7.82;4.32;;;;;;;2.89;100.00;99929.88;7393488;19;20327;-68
2024/01/05 08:22:32;;;;;;;10.10;4.60;;;;;;;2.90;100.00;99928.03;7394607;19;19950;-68
2024/01/05 08:25:01;;;;;;;10.57;5.07;;;;;;;2.94;100.00;99926.75;7396340;19;19930;-68
2024/01/05 08:27:52;;;;;;;9.63;4.57;;;;;;;2.98;100.00;99925.47;7396345;19;19921;-68
2024/01/05 08:30:21;;;;;;;7.57;4.07;;;;;;;2.96;100.00;99924.78;7395989;19;19911;-69
2024/01/05 08:32:54;;;;;;;8.27;3.83;;;;;;;2.97;100.00;99915.84;7395373;19;19919;-68
2024/01/05 08:35:23;;;;;;;9.38;5.00;;;;;;;2.99;100.00;99912.03;7394979;19;20845;-67
2024/01/05 08:37:51;;;;;;;8.40;4.10;;;;;;;3.02;100.00;99916.22;7398121;19;19925;-68
2024/01/05 08:40:40;;;;;;;9.65;4.45;;;;;;;3.01;100.00;99914.53;7393656;19;19927;-68
2024/01/05 08:43:31;;;;;;;7.70;4.47;;;;;;;3.03;100.00;99909.88;7393059;19;20020;-68
2024/01/05 08:46:00;;;;;;;9.38;4.47;;;;;;;3.03;100.00;99905.41;7395197;19;19933;-68
2024/01/05 08:48:29;;;;;;;9.02;4.43;;;;;;;3.05;100.00;99906.09;7397134;19;19959;-68
2024/01/05 08:50:58;;;;;;;9.77;4.15;;;;;;;3.05;100.00;99903.44;7396482;19;19929;-68
2024/01/05 08:53:26;;;;;;;9.57;4.95;;;;;;;3.07;100.00;99900.59;7395720;19;19926;-68
2024/01/05 08:55:55;;;;;;;9.40;4.38;;;;;;;3.09;100.00;99895.97;7396608;19;19922;-68
2024/01/05 08:58:24;;;;;;;6.85;3.90;;;;;;;3.11;100.00;99896.66;7395137;19;20559;-68
2024/01/05 09:00:55;;;;;;;9.98;5.10;;;;;;;3.15;100.00;99895.34;7396555;19;19926;-68
2024/01/05 09:03:24;;;;;;;9.20;4.72;;;;;;;3.14;100.00;99885.72;7396341;19;19914;-67
2024/01/05 09:05:52;;;;;;;8.55;4.30;;;;;;;3.16;100.00;99889.03;7396317;19;19929;-68
2024/01/05 09:08:21;;;;;;;9.00;4.00;;;;;;;3.19;100.00;99892.22;7391201;19;19934;-68
2024/01/05 09:10:50;;;;;;;7.80;4.20;;;;;;;3.19;100.00;99905.53;7393182;19;19977;-68
2024/01/05 09:13:18;;;;;;;9.68;4.65;;;;;;;3.22;100.00;99899.09;7397941;19;19919;-68
2024/01/05 09:15:47;;;;;;;9.60;4.43;;;;;;;3.20;100.00;99914.34;7397850;19;19918;-68
2024/01/05 09:18:18;;;;;;;6.72;4.22;;;;;;;3.23;100.00;99922.06;7392467;19;19922;-68
2024/01/05 09:20:46;;;;;;;10.18;4.70;;;;;;;3.22;100.00;99919.53;7394411;19;19971;-68
2024/01/05 09:23:15;;;;;;;11.48;4.95;;;;;;;3.24;100.00;99904.28;7394869;19;19919;-69
2024/01/05 09:25:44;;;;;;;9.68;4.78;;;;;;;3.27;100.00;99906.63;7391680;19;19931;-69
2024/01/05 09:28:14;;;;;;;8.45;4.43;;;;;;;3.31;100.00;99907.97;7394538;19;19922;-68
2024/01/05 09:31:02;;;;;;;8.00;3.88;;;;;;;3.33;100.00;99901.50;7390816;19;19925;-68
2024/01/05 09:33:34;;;;;;;9.35;5.40;;;;;;;3.35;100.00;99904.84;7397415;19;19933;-68
2024/01/05 09:36:02;;;;;;;8.10;3.65;;;;;;;3.34;100.00;99905.84;7396818;19;19922;-68
2024/01/05 09:38:31;;;;;;;6.18;3.60;;;;;;;3.36;100.00;99897.72;7396844;19;19959;-68
2024/01/05 09:41:00;;;;;;;7.40;3.97;;;;;;;3.36;100.00;99898.56;7395833;19;19918;-68
2024/01/05 09:43:28;;;;;;;7.15;4.20;;;;;;;3.36;100.00;99909.19;7396165;19;20275;-68
2024/01/05 09:46:18;;;;;;;8.20;4.32;;;;;;;3.37;100.00;99900.19;7394870;19;19919;-67
2024/01/05 09:48:49;;;;;;;7.53;3.90;;;;;;;3.35;100.00;99899.53;7396725;19;19925;-68
2024/01/05 09:51:18;;;;;;;8.35;4.40;;;;;;;3.36;100.00;99903.88;7396111;19;19942;-68
2024/01/05 09:53:47;;;;;;;7.15;4.30;;;;;;;3.40;100.00;99913.22;7395738;19;19926;-69
2024/01/05 09:56:18;;;;;;;7.45;4.18;;;;;;;3.40;100.00;99917.69;7396417;19;19941;-68
2024/01/05 09:58:47;;;;;;;9.52;4.95;;;;;;;3.38;100.00;99909.84;7395599;19;19926;-69
2024/01/05 10:01:23;;;;;;;10.65;5.05;;;;;;;3.38;100.00;99912.53;7395833;19;19940;-68
2024/01/05 10:03:59;;;;;;;8.10;4.35;;;;;;;3.41;100.00;99898.88;7393245;19;19927;-68
2024/01/05 10:06:28;;;;;;;8.45;4.22;;;;;;;3.42;100.00;99905.91;7396192;19;19918;-67
2024/01/05 10:08:58;;;;;;;9.68;4.57;;;;;;;3.43;100.00;99904.91;7393883;19;19943;-68
2024/01/05 10:11:30;;;;;;;9.23;5.10;;;;;;;3.45;100.00;99902.09;7392593;19;19919;-68
2024/01/05 10:14:02;;;;;;;8.65;4.47;;;;;;;3.46;100.00;99901.09;7395736;19;19930;-68
2024/01/05 10:16:36;;;;;;;9.43;4.60;;;;;;;3.45;100.00;99900.25;7396551;19;19942;-68
2024/01/05 10:19:17;;;;;;;9.50;5.30;;;;;;;3.47;100.00;99906.28;7395449;19;19926;-68
2024/01/05 10:21:47;;;;;;;9.52;4.55;;;;;;;3.48;100.00;99909.78;7394566;19;20270;-68
2024/01/05 10:24:25;;;;;;;9.13;4.63;;;;;;;3.48;100.00;99910.63;7394685;19;19919;-68
2024/01/05 10:27:04;;;;;;;10.68;5.50;;;;;;;3.50;100.00;99908.63;7394003;19;19926;-68
2024/01/05 10:29:36;;;;;;;10.00;5.32;;;;;;;3.53;100.00;99913.66;7392895;19;20544;-68
2024/01/05 10:32:14;;;;;;;9.85;5.40;;;;;;;3.56;100.00;99916.00;7395337;19;19990;-68
2024/01/05 10:34:47;;;;;;;10.57;5.15;;;;;;;3.56;100.00;99916.00;7391147;19;20329;-68
2024/01/05 10:37:16;;;;;;;9.88;5.35;;;;;;;3.60;100.00;99913.84;7388664;19;20329;-67
2024/01/05 10:39:51;;;;;;;10.52;5.40;;;;;;;3.62;100.00;99910.03;7390026;19;19930;-69
2024/01/05 10:42:21;;;;;;;8.05;5.15;;;;;;;3.60;100.00;99904.03;7393605;19;19926;-69
2024/01/05 10:44:52;;;;;;;10.63;5.95;;;;;;;3.65;100.00;99900.91;7386435;19;19922;-69
2024/01/05 10:47:22;;;;;;;11.93;5.82;;;;;;;3.67;100.00;99908.75;7391707;19;19918;-69
2024/01/05 10:49:55;;;;;;;8.90;5.32;;;;;;;3.70;100.00;99898.63;7392790;19;20355;-69
2024/01/05 10:52:25;;;;;;;10.38;5.72;;;;;;;3.72;100.00;99893.09;7395613;19;20462;-70
2024/01/05 10:54:55;;;;;;;10.55;5.10;;;;;;;3.70;100.00;99893.28;7393813;19;20262;-69
2024/01/05 10:57:25;;;;;;;10.70;5.03;;;;;;;3.71;100.00;99886.13;7393402;19;19930;-70
2024/01/05 10:59:55;;;;;;;10.65;5.07;;;;;;;3.73;100.00;99884.13;7392366;19;19925;-70
2024/01/05 11:02:27;;;;;;;10.70;4.70;;;;;;;3.75;100.00;99890.16;7392492;19;19918;-69
2024/01/05 11:05:05;;;;;;;9.75;4.97;;;;;;;3.78;100.00;99901.31;7393999;19;19919;-69
2024/01/05 11:07:36;;;;;;;10.43;5.32;;;;;;;3.80;100.00;99894.00;7392212;19;20363;-69
2024/01/05 11:10:18;;;;;;;5.80;4.10;;;;;;;3.83;100.00;99882.22;7394100;19;19946;-69
2024/01/05 11:13:03;;;;;;;9.02;4.35;;;;;;;3.84;100.00;99879.38;7392319;19;19919;-70
2024/01/05 11:15:47;;;;;;;8.82;4.25;;;;;;;3.87;100.00;99872.91;7388846;19;19964;-69
2024/01/05 11:18:55;;;;;;;8.02;4.38;;;;;;;3.90;100.00;99877.91;7391083;19;19922;-69
2024/01/05 11:21:38;;;;;;;7.85;4.30;;;;;;;3.93;100.00;99877.59;7389885;19;19939;-69
2024/01/05 11:24:08;;;;;;;7.50;4.35;;;;;;;3.97;100.00;99873.63;7391805;19;19940;-69
2024/01/05 11:26:42;;;;;;;9.27;4.20;;;;;;;3.98;100.00;99865.47;7389616;19;19923;-69
2024/01/05 11:29:13;;;;;;;7.80;4.45;;;;;;;4.02;100.00;99869.47;7392308;19;19964;-69
2024/01/05 11:31:52;;;;;;;6.82;3.72;;;;;;;4.06;100.00;99860.16;7391006;19;19934;-69
2024/01/05 11:34:34;;;;;;;8.18;4.18;;;;;;;4.08;100.00;99852.03;7391074;19;19924;-69
2024/01/05 11:37:07;;;;;;;5.55;3.03;;;;;;;4.14;100.00;99856.72;7390817;19;19958;-69
2024/01/05 11:39:56;;;;;;;6.05;3.10;;;;;;;4.20;100.00;99858.72;7389396;19;19976;-68
2024/01/05 11:42:35;;;;;;;7.65;3.50;;;;;;;4.24;100.00;99861.91;7391082;19;20555;-70
2024/01/05 11:45:59;;;;;;;7.53;3.67;;;;;;;4.23;100.00;99858.38;7386345;19;19940;-69
2024/01/05 11:48:51;;;;;;;7.28;3.78;;;;;;;4.21;100.00;99859.56;7390821;19;20297;-70
2024/01/05 11:51:20;;;;;;;7.47;3.72;;;;;;;4.20;100.00;99858.72;7397153;19;20002;-70